createdAt,value
2023-09-17T00:01:55.673Z,101048.75
2023-09-17T00:04:24.298Z,101053.06
2023-09-17T00:06:51.885Z,101046.59
2023-09-17T00:09:18.983Z,101051.19
2023-09-17T00:11:47.188Z,101060.38
2023-09-17T00:14:14.489Z,101063.38
2023-09-17T00:16:42.189Z,101058.22
2023-09-17T00:19:09.611Z,101054.19
2023-09-17T00:21:36.985Z,101047.16
2023-09-17T00:24:04.323Z,101047.69
2023-09-17T00:26:31.614Z,101052.84
2023-09-17T00:28:58.744Z,101053.66
2023-09-17T00:31:25.965Z,101045.81
2023-09-17T00:33:53.048Z,101055.00
2023-09-17T00:36:21.171Z,101043.91
2023-09-17T00:38:48.179Z,101038.75
2023-09-17T00:41:15.552Z,101043.91
2023-09-17T00:43:43.513Z,101047.69
2023-09-17T00:46:14.325Z,101048.50
2023-09-17T00:48:43.440Z,101047.97
2023-09-17T00:51:10.581Z,101059.06
2023-09-17T00:53:38.421Z,101053.09
2023-09-17T00:56:05.716Z,101048.50
2023-09-17T00:58:34.742Z,101049.06
2023-09-17T01:01:05.360Z,101055.53
2023-09-17T01:03:33.255Z,101052.84
2023-09-17T01:06:04.294Z,101053.13
2023-09-17T01:08:32.360Z,101041.22
2023-09-17T01:11:00.083Z,101051.22
2023-09-17T01:13:27.752Z,101039.31
2023-09-17T01:15:55.973Z,101042.31
2023-09-17T01:18:23.594Z,101043.38
2023-09-17T01:21:08.578Z,101042.03
2023-09-17T01:24:04.170Z,101043.38
2023-09-17T01:26:33.257Z,101044.75
2023-09-17T01:29:00.532Z,101047.44
2023-09-17T01:31:28.571Z,101042.03
2023-09-17T01:33:55.859Z,101048.53
2023-09-17T01:36:36.321Z,101051.50
2023-09-17T01:39:14.053Z,101063.41
2023-09-17T01:41:42.903Z,101062.00
2023-09-17T01:44:11.377Z,101051.19
2023-09-17T01:46:41.022Z,101060.66
2023-09-17T01:49:13.340Z,101049.31
2023-09-17T01:51:41.472Z,101054.16
2023-09-17T01:54:09.214Z,101056.88
2023-09-17T01:56:37.180Z,101054.72
2023-09-17T01:59:08.133Z,101050.38
2023-09-17T02:01:35.473Z,101044.44
2023-09-17T02:04:02.840Z,101040.91
2023-09-17T02:06:30.094Z,101052.00
2023-09-17T02:08:57.227Z,101050.66
2023-09-17T02:11:25.432Z,101046.84
2023-09-17T02:13:53.246Z,101042.81
2023-09-17T02:16:22.124Z,101047.94
2023-09-17T02:18:49.894Z,101054.69
2023-09-17T02:21:16.919Z,101053.59
2023-09-17T02:23:45.383Z,101063.34
2023-09-17T02:26:12.811Z,101065.50
2023-09-17T02:28:40.391Z,101061.69
2023-09-17T02:31:08.098Z,101062.78
2023-09-17T02:33:35.176Z,101066.84
2023-09-17T02:36:04.658Z,101056.56
2023-09-17T02:38:31.923Z,101043.31
2023-09-17T02:41:00.831Z,101055.22
2023-09-17T02:43:31.013Z,101052.50
2023-09-17T02:45:58.475Z,101051.13
2023-09-17T02:48:25.741Z,101049.25
2023-09-17T02:50:53.636Z,101052.47
2023-09-17T02:53:21.716Z,101056.25
2023-09-17T02:55:48.923Z,101059.22
2023-09-17T02:58:16.306Z,101057.06
2023-09-17T03:00:45.653Z,101051.38
2023-09-17T03:03:13.519Z,101053.28
2023-09-17T03:05:40.712Z,101049.75
2023-09-17T03:08:10.397Z,101052.19
2023-09-17T03:10:44.046Z,101047.31
2023-09-17T03:13:13.840Z,101058.41
2023-09-17T03:15:41.394Z,101057.06
2023-09-17T03:18:08.490Z,101054.88
2023-09-17T03:20:36.028Z,101055.97
2023-09-17T03:23:05.485Z,101051.09
2023-09-17T03:25:35.566Z,101050.28
2023-09-17T03:28:03.720Z,101058.66
2023-09-17T03:30:31.397Z,101054.88
2023-09-17T03:33:05.413Z,101049.19
2023-09-17T03:35:43.427Z,101062.97
2023-09-17T03:38:10.792Z,101061.06
2023-09-17T03:40:38.106Z,101050.25
2023-09-17T03:43:09.709Z,101047.28
2023-09-17T03:45:37.316Z,101057.81
2023-09-17T03:48:05.788Z,101063.22
2023-09-17T03:50:33.039Z,101055.38
2023-09-17T03:53:03.549Z,101055.09
2023-09-17T03:55:30.931Z,101050.50
2023-09-17T03:57:58.597Z,101064.53
2023-09-17T04:00:29.681Z,101067.78
2023-09-17T04:02:57.126Z,101072.63
2023-09-17T04:05:25.298Z,101071.53
2023-09-17T04:07:52.532Z,101059.66
2023-09-17T04:10:21.033Z,101075.88
2023-09-17T04:12:48.487Z,101075.56
2023-09-17T04:15:19.080Z,101076.09
2023-09-17T04:17:54.718Z,101074.47
2023-09-17T04:20:22.328Z,101075.00
2023-09-17T04:22:51.701Z,101077.16
2023-09-17T04:25:21.594Z,101076.34
2023-09-17T04:27:52.784Z,101083.91
2023-09-17T04:30:22.634Z,101089.31
2023-09-17T04:32:52.270Z,101084.13
2023-09-17T04:35:20.032Z,101083.03
2023-09-17T04:37:50.703Z,101081.13
2023-09-17T04:40:27.232Z,101096.25
2023-09-17T04:42:56.378Z,101086.00
2023-09-17T04:45:38.710Z,101089.25
2023-09-17T04:48:12.468Z,101087.34
2023-09-17T04:50:44.863Z,101096.78
2023-09-17T04:53:15.498Z,101103.25
2023-09-17T04:55:45.409Z,101089.75
2023-09-17T04:58:14.843Z,101101.13
2023-09-17T05:00:43.218Z,101095.44
2023-09-17T05:03:11.801Z,101106.25
2023-09-17T05:05:40.586Z,101089.78
2023-09-17T05:08:08.920Z,101103.28
2023-09-17T05:10:36.243Z,101101.94
2023-09-17T05:13:03.319Z,101095.19
2023-09-17T05:15:30.550Z,101116.31
2023-09-17T05:17:59.215Z,101105.53
2023-09-17T05:20:27.288Z,101113.94
2023-09-17T05:22:56.050Z,101110.44
2023-09-17T05:25:23.283Z,101118.03
2023-09-17T05:27:51.155Z,101118.84
2023-09-17T05:30:18.939Z,101106.97
2023-09-17T05:32:46.511Z,101121.88
2023-09-17T05:35:14.351Z,101121.88
2023-09-17T05:37:41.915Z,101121.91
2023-09-17T05:40:10.567Z,101112.44
2023-09-17T05:42:38.860Z,101117.09
2023-09-17T05:45:06.396Z,101119.28
2023-09-17T05:47:33.791Z,101111.44
2023-09-17T05:50:01.392Z,101123.91
2023-09-17T05:52:34.431Z,101124.72
2023-09-17T05:55:05.005Z,101132.88
2023-09-17T05:57:35.267Z,101133.41
2023-09-17T06:00:08.714Z,101133.69
2023-09-17T06:02:42.559Z,101136.94
2023-09-17T06:05:13.331Z,101135.88
2023-09-17T06:07:41.134Z,101141.56
2023-09-17T06:10:08.682Z,101135.63
2023-09-17T06:12:35.934Z,101146.47
2023-09-17T06:15:05.562Z,101136.72
2023-09-17T06:17:33.275Z,101143.72
2023-09-17T06:20:00.986Z,101138.59
2023-09-17T06:22:28.235Z,101152.41
2023-09-17T06:24:56.117Z,101156.16
2023-09-17T06:27:23.535Z,101157.50
2023-09-17T06:29:51.265Z,101160.97
2023-09-17T06:32:19.758Z,101142.31
2023-09-17T06:34:48.372Z,101157.97
2023-09-17T06:37:15.775Z,101157.66
2023-09-17T06:39:43.605Z,101156.22
2023-09-17T06:42:12.314Z,101152.66
2023-09-17T06:44:39.792Z,101153.13
2023-09-17T06:47:06.973Z,101148.72
2023-09-17T06:49:35.326Z,101146.22
2023-09-17T06:52:02.341Z,101159.38
2023-09-17T06:54:29.480Z,101158.72
2023-09-17T06:56:56.889Z,101156.44
2023-09-17T06:59:24.640Z,101152.78
2023-09-17T07:01:52.022Z,101157.78
2023-09-17T07:04:19.296Z,101159.53
2023-09-17T07:06:46.558Z,101168.28
2023-09-17T07:09:14.264Z,101150.94
2023-09-17T07:11:41.614Z,101161.25
2023-09-17T07:14:11.232Z,101160.44
2023-09-17T07:16:40.085Z,101162.22
2023-09-17T07:19:07.274Z,101164.03
2023-09-17T07:21:34.559Z,101165.81
2023-09-17T07:24:01.713Z,101150.72
2023-09-17T07:26:29.916Z,101163.69
2023-09-17T07:28:57.575Z,101159.91
2023-09-17T07:31:24.959Z,101150.91
2023-09-17T07:33:52.448Z,101157.22
2023-09-17T07:36:19.829Z,101161.97
2023-09-17T07:38:47.140Z,101155.78
2023-09-17T07:41:14.232Z,101141.72
2023-09-17T07:43:41.437Z,101145.28
2023-09-17T07:46:12.972Z,101152.78
2023-09-17T07:48:41.140Z,101139.84
2023-09-17T07:51:08.358Z,101129.50
2023-09-17T07:53:35.775Z,101134.63
2023-09-17T07:56:02.980Z,101142.59
2023-09-17T07:58:30.148Z,101139.03
2023-09-17T08:00:57.536Z,101156.56
2023-09-17T08:03:24.724Z,101148.22
2023-09-17T08:05:52.211Z,101149.97
2023-09-17T08:08:19.263Z,101140.78
2023-09-17T08:10:47.991Z,101140.59
2023-09-17T08:13:15.654Z,101128.13
2023-09-17T08:15:43.304Z,101140.03
2023-09-17T08:18:10.593Z,101136.41
2023-09-17T08:20:38.072Z,101133.59
2023-09-17T08:23:05.479Z,101134.50
2023-09-17T08:25:34.825Z,101120.34
2023-09-17T08:28:02.516Z,101131.59
2023-09-17T08:30:32.801Z,101128.63
2023-09-17T08:33:02.277Z,101125.50
2023-09-17T08:35:29.300Z,101130.44
2023-09-17T08:37:57.196Z,101114.81
2023-09-17T08:40:30.656Z,101114.69
2023-09-17T08:43:00.618Z,101118.31
2023-09-17T08:45:30.018Z,101114.84
2023-09-17T08:47:57.956Z,101114.25
2023-09-17T08:50:30.412Z,101094.44
2023-09-17T08:53:02.714Z,101099.13
2023-09-17T08:55:32.403Z,101099.34
2023-09-17T08:58:23.423Z,101097.91
2023-09-17T09:00:53.650Z,101089.56
2023-09-17T09:03:26.759Z,101089.53
2023-09-17T09:05:56.557Z,101081.88
2023-09-17T09:08:26.280Z,101084.94
2023-09-17T09:10:53.729Z,101081.97
2023-09-17T09:13:23.012Z,101084.06
2023-09-17T09:15:50.741Z,101081.66
2023-09-17T09:18:18.268Z,101080.81
2023-09-17T09:20:45.288Z,101078.59
2023-09-17T09:23:13.341Z,101084.56
2023-09-17T09:25:41.508Z,101082.91
2023-09-17T09:28:08.588Z,101082.78
2023-09-17T09:30:37.765Z,101071.56
2023-09-17T09:33:05.376Z,101068.25
2023-09-17T09:35:32.593Z,101068.22
2023-09-17T09:38:02.648Z,101065.97
2023-09-17T09:40:30.212Z,101059.91
2023-09-17T09:42:58.982Z,101046.53
2023-09-17T09:45:26.385Z,101055.47
2023-09-17T09:47:54.856Z,101055.75
2023-09-17T09:50:31.521Z,101060.44
2023-09-17T09:52:58.794Z,101048.53
2023-09-17T09:55:29.522Z,101052.22
2023-09-17T09:57:57.148Z,101060.34
2023-09-17T10:00:30.551Z,101058.19
2023-09-17T10:02:58.180Z,101060.19
2023-09-17T10:05:38.199Z,101053.06
2023-09-17T10:08:05.823Z,101052.19
2023-09-17T10:10:33.486Z,101053.56
2023-09-17T10:13:07.721Z,101047.59
2023-09-17T10:15:37.748Z,101051.50
2023-09-17T10:18:08.508Z,101053.44
2023-09-17T10:20:36.142Z,101039.97
2023-09-17T10:23:05.913Z,101044.38
2023-09-17T10:25:35.351Z,101040.69
2023-09-17T10:28:04.280Z,101033.44
2023-09-17T10:30:32.545Z,101037.66
2023-09-17T10:33:01.295Z,101033.06
2023-09-17T10:35:31.172Z,101036.41
2023-09-17T10:38:04.979Z,101033.41
2023-09-17T10:40:33.120Z,101029.69
2023-09-17T10:43:02.995Z,101022.78
2023-09-17T10:45:35.767Z,101021.47
2023-09-17T10:48:03.872Z,101021.75
2023-09-17T10:50:37.798Z,101032.34
2023-09-17T10:53:11.674Z,101030.34
2023-09-17T10:55:47.380Z,101025.03
2023-09-17T10:58:21.405Z,101029.44
2023-09-17T11:00:50.032Z,101034.75
2023-09-17T11:03:23.922Z,101043.66
2023-09-17T11:05:54.139Z,101048.47
2023-09-17T11:08:21.938Z,101036.72
2023-09-17T11:10:52.240Z,101042.69
2023-09-17T11:13:21.407Z,101035.31
2023-09-17T11:15:50.266Z,101035.41
2023-09-17T11:18:18.623Z,101037.22
2023-09-17T11:21:09.613Z,101035.06
2023-09-17T11:23:47.068Z,101033.53
2023-09-17T11:26:19.970Z,101035.72
2023-09-17T11:29:06.586Z,101026.97
2023-09-17T11:32:01.344Z,101022.75
2023-09-17T11:34:28.420Z,101034.03
2023-09-17T11:36:59.037Z,101028.94
2023-09-17T11:39:26.785Z,101024.22
2023-09-17T11:42:09.423Z,101028.22
2023-09-17T11:44:38.487Z,101021.53
2023-09-17T11:47:08.564Z,101022.16
2023-09-17T11:49:36.418Z,101018.22
2023-09-17T11:52:11.351Z,101017.75
2023-09-17T11:54:52.333Z,101030.09
2023-09-17T11:57:27.571Z,101025.91
2023-09-17T11:59:56.644Z,101020.91
2023-09-17T12:02:24.626Z,101026.28
2023-09-17T12:04:53.337Z,101042.09
2023-09-17T12:07:21.823Z,101027.06
2023-09-17T12:09:59.364Z,101039.28
2023-09-17T12:12:26.494Z,101035.59
2023-09-17T12:14:53.529Z,101028.50
2023-09-17T12:17:21.373Z,101036.06
2023-09-17T12:20:11.745Z,101031.66
2023-09-17T12:23:56.208Z,101032.66
2023-09-17T12:27:24.067Z,101036.28
2023-09-17T12:29:57.430Z,101030.16
2023-09-17T12:32:27.906Z,101032.50
2023-09-17T12:34:56.421Z,101029.03
2023-09-17T12:37:24.350Z,101022.75
2023-09-17T12:39:51.599Z,101029.66
2023-09-17T12:42:18.820Z,101027.75
2023-09-17T12:44:46.168Z,101026.81
2023-09-17T12:47:14.482Z,101015.34
2023-09-17T12:49:43.305Z,101025.59
2023-09-17T12:52:12.603Z,101020.69
2023-09-17T12:54:40.806Z,101012.94
2023-09-17T12:57:08.337Z,101015.72
2023-09-17T12:59:40.460Z,101007.00
2023-09-17T13:02:08.827Z,101000.25
2023-09-17T13:04:45.536Z,100999.66
2023-09-17T13:07:24.919Z,101009.66
2023-09-17T13:09:57.757Z,101006.03
2023-09-17T13:12:28.481Z,101005.19
2023-09-17T13:14:59.632Z,100998.06
2023-09-17T13:17:30.526Z,101006.31
2023-09-17T13:19:58.689Z,101002.44
2023-09-17T13:22:27.355Z,101015.31
2023-09-17T13:24:55.136Z,101012.75
2023-09-17T13:27:22.830Z,101010.16
2023-09-17T13:29:55.200Z,101018.56
2023-09-17T13:32:22.767Z,101006.19
2023-09-17T13:34:50.909Z,101004.25
2023-09-17T13:37:19.255Z,101008.31
2023-09-17T13:39:52.985Z,101009.91
2023-09-17T13:42:20.851Z,101010.72
2023-09-17T13:44:47.906Z,100999.59
2023-09-17T13:47:15.183Z,101001.31
2023-09-17T13:49:42.817Z,100991.31
2023-09-17T13:52:10.878Z,100994.22
2023-09-17T13:54:39.702Z,100993.84
2023-09-17T13:57:06.805Z,101000.75
2023-09-17T13:59:33.811Z,101002.88
2023-09-17T14:02:01.330Z,101000.22
2023-09-17T14:04:28.379Z,101005.81
2023-09-17T14:06:56.599Z,101004.59
2023-09-17T14:09:24.012Z,100999.31
2023-09-17T14:11:51.866Z,100999.59
2023-09-17T14:14:19.497Z,100996.97
2023-09-17T14:16:47.268Z,100995.91
2023-09-17T14:19:19.121Z,100995.63
2023-09-17T14:21:47.857Z,100992.50
2023-09-17T14:24:15.274Z,100995.47
2023-09-17T14:26:42.371Z,100986.38
2023-09-17T14:29:09.684Z,100991.84
2023-09-17T14:31:39.415Z,100978.84
2023-09-17T14:34:08.868Z,100978.16
2023-09-17T14:36:36.145Z,100969.44
2023-09-17T14:39:03.214Z,100967.88
2023-09-17T14:41:31.077Z,100963.88
2023-09-17T14:43:58.145Z,100970.56
2023-09-17T14:46:25.302Z,100959.81
2023-09-17T14:48:53.634Z,100957.34
2023-09-17T14:51:21.223Z,100963.75
2023-09-17T14:53:48.272Z,100965.94
2023-09-17T14:56:15.224Z,100953.28
2023-09-17T14:58:42.523Z,100959.19
2023-09-17T15:01:11.912Z,100956.69
2023-09-17T15:03:46.187Z,100954.31
2023-09-17T15:06:13.567Z,100950.28
2023-09-17T15:08:41.435Z,100960.63
2023-09-17T15:11:09.499Z,100955.44
2023-09-17T15:13:36.929Z,100947.53
2023-09-17T15:16:04.559Z,100952.75
2023-09-17T15:18:31.583Z,100952.81
2023-09-17T15:20:58.634Z,100949.34
2023-09-17T15:23:25.646Z,100953.84
2023-09-17T15:25:52.642Z,100958.88
2023-09-17T15:28:19.873Z,100961.34
2023-09-17T15:30:50.365Z,100965.19
2023-09-17T15:33:17.532Z,100961.00
2023-09-17T15:35:44.926Z,100958.31
2023-09-17T15:38:12.467Z,100952.38
2023-09-17T15:40:42.831Z,100962.31
2023-09-17T15:43:10.021Z,100953.31
2023-09-17T15:45:37.083Z,100964.28
2023-09-17T15:48:04.582Z,100957.00
2023-09-17T15:50:31.623Z,100960.16
2023-09-17T15:52:58.682Z,100960.03
2023-09-17T15:55:25.705Z,100961.50
2023-09-17T15:57:52.965Z,100958.28
2023-09-17T16:00:20.227Z,100953.88
2023-09-17T16:02:47.563Z,100964.94
2023-09-17T16:05:15.129Z,100966.41
2023-09-17T16:07:45.460Z,100962.69
2023-09-17T16:10:15.058Z,100966.22
2023-09-17T16:12:43.055Z,100964.97
2023-09-17T16:15:10.808Z,100965.25
2023-09-17T16:17:38.961Z,100963.59
2023-09-17T16:20:07.325Z,100968.25
2023-09-17T16:22:35.801Z,100975.59
2023-09-17T16:25:05.516Z,100974.91
2023-09-17T16:27:32.723Z,100980.47
2023-09-17T16:30:00.115Z,100982.69
2023-09-17T16:32:29.387Z,100976.50
2023-09-17T16:34:56.951Z,100974.69
2023-09-17T16:37:24.394Z,100985.13
2023-09-17T16:39:51.832Z,100982.38
2023-09-17T16:42:19.188Z,100989.09
2023-09-17T16:44:46.315Z,100977.50
2023-09-17T16:47:16.866Z,100998.88
2023-09-17T16:49:46.721Z,100987.19
2023-09-17T16:52:14.016Z,100998.97
2023-09-17T16:54:43.025Z,100992.16
2023-09-17T16:57:13.428Z,100989.53
2023-09-17T16:59:40.551Z,100990.59
2023-09-17T17:02:08.739Z,100978.88
2023-09-17T17:04:36.545Z,100984.53
2023-09-17T17:07:04.220Z,100975.19
2023-09-17T17:09:32.408Z,100982.03
2023-09-17T17:11:59.688Z,100988.81
2023-09-17T17:14:27.090Z,100991.69
2023-09-17T17:16:54.195Z,100992.53
2023-09-17T17:19:21.615Z,100993.84
2023-09-17T17:21:49.037Z,100997.13
2023-09-17T17:24:19.092Z,100988.84
2023-09-17T17:26:46.578Z,100987.59
2023-09-17T17:29:13.666Z,100997.09
2023-09-17T17:31:40.884Z,100987.91
2023-09-17T17:34:08.571Z,101008.75
2023-09-17T17:36:35.797Z,101004.63
2023-09-17T17:39:04.516Z,101003.03
2023-09-17T17:41:32.028Z,101024.50
2023-09-17T17:44:01.739Z,101022.25
2023-09-17T17:46:29.419Z,101017.72
2023-09-17T17:48:56.807Z,101009.13
2023-09-17T17:51:23.975Z,101006.00
2023-09-17T17:53:51.406Z,101000.94
2023-09-17T17:56:24.807Z,101013.44
2023-09-17T17:58:53.142Z,101006.41
2023-09-17T18:01:21.920Z,101007.97
2023-09-17T18:03:49.226Z,101007.53
2023-09-17T18:06:17.508Z,101014.53
2023-09-17T18:08:45.392Z,101006.00
2023-09-17T18:11:13.227Z,101000.84
2023-09-17T18:13:40.392Z,101003.81
2023-09-17T18:16:07.683Z,101014.78
2023-09-17T18:18:34.869Z,101019.31
2023-09-17T18:21:01.889Z,101017.25
2023-09-17T18:23:28.993Z,101020.59
2023-09-17T18:25:58.292Z,101002.53
2023-09-17T18:28:27.406Z,101018.31
2023-09-17T18:30:59.240Z,101002.38
2023-09-17T18:33:26.657Z,101006.25
2023-09-17T18:35:57.848Z,101006.72
2023-09-17T18:38:25.654Z,101011.06
2023-09-17T18:40:54.146Z,101012.63
2023-09-17T18:43:25.244Z,101006.66
2023-09-17T18:45:55.405Z,101010.97
2023-09-17T18:48:22.835Z,101004.19
2023-09-17T18:50:50.123Z,101004.63
2023-09-17T18:53:17.744Z,101004.94
2023-09-17T18:55:45.216Z,101001.53
2023-09-17T18:58:12.375Z,101001.81
2023-09-17T19:00:39.530Z,101015.09
2023-09-17T19:03:06.950Z,101014.13
2023-09-17T19:05:36.862Z,101016.50
2023-09-17T19:08:05.346Z,101017.25
2023-09-17T19:10:32.516Z,101013.69
2023-09-17T19:12:59.711Z,100999.66
2023-09-17T19:15:27.218Z,101010.22
2023-09-17T19:17:54.620Z,101012.25
2023-09-17T19:20:21.911Z,101019.75
2023-09-17T19:22:49.328Z,101014.84
2023-09-17T19:25:16.926Z,101007.59
2023-09-17T19:27:48.266Z,101018.13
2023-09-17T19:30:16.857Z,101000.88
2023-09-17T19:32:44.413Z,101001.81
2023-09-17T19:35:11.816Z,100996.28
2023-09-17T19:37:39.369Z,100993.69
2023-09-17T19:40:08.131Z,100984.44
2023-09-17T19:42:38.064Z,100988.41
2023-09-17T19:45:05.707Z,100989.81
2023-09-17T19:47:33.052Z,100984.53
2023-09-17T19:50:00.534Z,100987.88
2023-09-17T19:52:27.723Z,100979.59
2023-09-17T19:54:54.899Z,100981.34
2023-09-17T19:57:24.866Z,100979.53
2023-09-17T19:59:53.445Z,100972.69
2023-09-17T20:02:21.249Z,100977.03
2023-09-17T20:04:48.595Z,100973.28
2023-09-17T20:07:15.682Z,100971.28
2023-09-17T20:09:43.613Z,100977.94
2023-09-17T20:12:11.323Z,100973.09
2023-09-17T20:14:38.404Z,100966.97
2023-09-17T20:17:05.902Z,100968.97
2023-09-17T20:19:36.507Z,100968.28
2023-09-17T20:22:04.917Z,100975.41
2023-09-17T20:24:32.822Z,100973.91
2023-09-17T20:27:00.256Z,100968.81
2023-09-17T20:29:34.854Z,100972.75
2023-09-17T20:32:32.427Z,100971.94
2023-09-17T20:35:02.463Z,100963.66
2023-09-17T20:37:37.178Z,100958.31
2023-09-17T20:40:05.555Z,100965.47
2023-09-17T20:42:33.581Z,100972.03
2023-09-17T20:45:01.295Z,100973.72
2023-09-17T20:47:29.788Z,100964.03
2023-09-17T20:49:58.620Z,100966.25
2023-09-17T20:52:26.156Z,100967.44
2023-09-17T20:54:53.355Z,100964.53
2023-09-17T20:57:21.445Z,100958.66
2023-09-17T20:59:48.686Z,100956.25
2023-09-17T21:02:15.956Z,100957.94
2023-09-17T21:04:46.358Z,100948.72
2023-09-17T21:07:13.607Z,100954.47
2023-09-17T21:09:40.755Z,100954.25
2023-09-17T21:12:09.611Z,100947.22
2023-09-17T21:14:38.358Z,100945.38
2023-09-17T21:17:05.431Z,100956.03
2023-09-17T21:19:32.622Z,100950.69
2023-09-17T21:21:59.794Z,100952.91
2023-09-17T21:24:36.886Z,100967.56
2023-09-17T21:27:04.926Z,100932.97
2023-09-17T21:29:32.148Z,100957.06
2023-09-17T21:32:06.300Z,100966.34
2023-09-17T21:34:33.601Z,100940.09
2023-09-17T21:37:10.925Z,100944.66
2023-09-17T21:39:39.108Z,100919.91
2023-09-17T21:42:06.341Z,100931.75
2023-09-17T21:44:34.986Z,100931.53
2023-09-17T21:47:02.463Z,100937.25
2023-09-17T21:49:29.911Z,100939.75
2023-09-17T21:51:57.286Z,100938.16
2023-09-17T21:54:24.845Z,100931.09
2023-09-17T21:56:52.214Z,100926.31
2023-09-17T21:59:19.768Z,100929.25
2023-09-17T22:01:46.962Z,100929.84
2023-09-17T22:04:14.289Z,100932.06
2023-09-17T22:06:42.018Z,100920.88
2023-09-17T22:09:09.519Z,100923.97
2023-09-17T22:11:45.603Z,100905.25
2023-09-17T22:14:24.798Z,100922.38
2023-09-17T22:16:52.427Z,100912.63
2023-09-17T22:19:20.318Z,100917.78
2023-09-17T22:21:48.118Z,100917.25
2023-09-17T22:24:15.041Z,100918.38
2023-09-17T22:26:42.469Z,100918.38
2023-09-17T22:29:09.792Z,100913.53
2023-09-17T22:31:37.114Z,100916.25
2023-09-17T22:34:04.316Z,100912.19
2023-09-17T22:36:32.008Z,100909.78
2023-09-17T22:38:59.096Z,100906.31
2023-09-17T22:41:26.999Z,100895.25
2023-09-17T22:43:57.674Z,100878.28
2023-09-17T22:46:31.833Z,100892.38
2023-09-17T22:48:59.402Z,100901.84
2023-09-17T22:51:31.575Z,100898.41
2023-09-17T22:53:59.122Z,100902.22
2023-09-17T22:56:26.721Z,100894.63
2023-09-17T22:58:54.185Z,100897.34
2023-09-17T23:01:21.861Z,100897.91
2023-09-17T23:03:49.176Z,100901.00
2023-09-17T23:06:16.814Z,100884.78
2023-09-17T23:08:45.087Z,100901.00
2023-09-17T23:11:12.426Z,100889.63
2023-09-17T23:13:42.665Z,100894.00
2023-09-17T23:16:09.899Z,100898.34
2023-09-17T23:18:36.850Z,100897.84
2023-09-17T23:21:05.050Z,100899.75
2023-09-17T23:23:32.755Z,100876.25
2023-09-17T23:26:02.375Z,100901.94
2023-09-17T23:28:34.580Z,100892.75
2023-09-17T23:31:04.974Z,100888.72
2023-09-17T23:33:35.842Z,100890.63
2023-09-17T23:36:06.290Z,100880.13
2023-09-17T23:38:33.503Z,100885.50
2023-09-17T23:41:00.575Z,100892.53
2023-09-17T23:43:28.500Z,100884.69
2023-09-17T23:45:55.568Z,100887.41
2023-09-17T23:48:22.771Z,100874.13
2023-09-17T23:50:56.267Z,100876.84
2023-09-17T23:53:25.035Z,100871.97
2023-09-17T23:55:52.755Z,100861.41
2023-09-17T23:58:20.371Z,100870.38
